»·PEaware :: N55NT KSBP-KSNA

N55NT :: KSBP-KSNA

FLIGHT INFORMATION

Flight Status: Arrived
Operator: Privately registered:
United States
More flights under this callsign
Pilot: Craig H. (6968)
Aircraft: SOCATA TBM-900
(TBM9)
More flights by this aircraft type
Origin: KSBP San Luis Co Regl
United States
Destination: KSNA John Wayne-Orange Co
United States
More flights between these airports :: More routes between these airports
Route: RZS VTU V208 SXC SLI
File this flight plan on PilotEdge
Remarks:
Altitude:
(Current/Filed)
9,000ft
Speed:
(Current/Filed)
320kts
Departed: 24-Jul-20 08:29 AM
Arrived: 24-Jul-20 09:28 AM
Distance/Time
Traveled:
166nm/0:59
Distance/Time
To Go:
Arrived

Flight Plot

Page will automatically refresh every two minutes.


Map Options




Map Legend


Flown Route
Filed Route
Departure Airport
Arrival Airport
Navaid (VOR, NDB)
Fix

Horizontal Profiles

Position Reports

Time Latitude Longitude Heading Altitude Ground
Speed
24-Jul-20 08:13 35.238749 -120.639051 266 215ft 0kts
24-Jul-20 08:14 35.238749 -120.639051 266 215ft 0kts
24-Jul-20 08:15 35.238749 -120.639051 266 215ft 0kts
24-Jul-20 08:16 35.238749 -120.639051 266 215ft 0kts
24-Jul-20 08:17 35.238749 -120.639051 266 215ft 0kts
24-Jul-20 08:18 35.238749 -120.639051 266 215ft 0kts
24-Jul-20 08:19 35.238749 -120.639051 266 215ft 0kts
24-Jul-20 08:20 35.238749 -120.639051 266 215ft 0kts
24-Jul-20 08:21 35.238749 -120.639051 266 215ft 0kts
24-Jul-20 08:22 35.238749 -120.639051 266 215ft 0kts
24-Jul-20 08:23 35.238749 -120.639052 266 215ft 0kts
24-Jul-20 08:24 35.238705 -120.639269 240 215ft 0kts
24-Jul-20 08:25 35.237373 -120.639180 125 215ft 12kts
24-Jul-20 08:26 35.234780 -120.634607 125 215ft 19kts
24-Jul-20 08:27 35.232792 -120.633020 305 215ft 0kts
24-Jul-20 08:28 35.247502 -120.659260 303 1522ft 136kts
24-Jul-20 08:29 35.269643 -120.698237 304 4049ft 147kts
24-Jul-20 08:30 35.275204 -120.740310 207 6305ft 160kts
24-Jul-20 08:31 35.238794 -120.713622 132 8798ft 168kts
24-Jul-20 08:32 35.198068 -120.660952 132 8999ft 245kts
24-Jul-20 08:33 35.149070 -120.596910 131 8986ft 264kts
24-Jul-20 08:34 35.098596 -120.531004 131 8984ft 267kts
24-Jul-20 08:35 35.047840 -120.464847 131 8984ft 266kts
24-Jul-20 08:36 34.997141 -120.398884 131 8984ft 266kts
24-Jul-20 08:37 34.946347 -120.332931 132 8984ft 267kts
24-Jul-20 08:38 34.895118 -120.266545 132 8983ft 268kts
24-Jul-20 08:39 34.843820 -120.200204 132 8982ft 269kts
24-Jul-20 08:40 34.792307 -120.133712 132 8983ft 269kts
24-Jul-20 08:41 34.740973 -120.067577 132 8983ft 269kts
24-Jul-20 08:42 34.689591 -120.001509 132 8983ft 269kts
24-Jul-20 08:43 34.637967 -119.935275 132 8983ft 269kts
24-Jul-20 08:44 34.586555 -119.869425 132 8983ft 269kts
24-Jul-20 08:45 34.535247 -119.803833 131 8983ft 268kts
24-Jul-20 08:46 34.489069 -119.733118 123 8985ft 269kts
24-Jul-20 08:47 34.447784 -119.657082 123 8984ft 270kts
24-Jul-20 08:48 34.406377 -119.580907 123 8984ft 270kts
24-Jul-20 08:49 34.364928 -119.504824 122 8985ft 270kts
24-Jul-20 08:50 34.324006 -119.429872 121 8983ft 266kts
24-Jul-20 08:51 34.283207 -119.355043 122 8982ft 266kts
24-Jul-20 08:52 34.244684 -119.285002 123 8983ft 269kts
24-Jul-20 08:53 34.203161 -119.209398 123 8983ft 270kts
24-Jul-20 08:54 34.161474 -119.133637 123 8983ft 271kts
24-Jul-20 08:55 34.119108 -119.058530 134 8966ft 272kts
24-Jul-20 08:56 34.046167 -119.042240 176 8983ft 266kts
24-Jul-20 08:57 33.972785 -119.034556 176 8983ft 265kts
24-Jul-20 08:58 33.899593 -119.026887 176 8983ft 264kts
24-Jul-20 08:59 33.826347 -119.019226 176 8983ft 263kts
24-Jul-20 09:00 33.765424 -118.978775 131 8987ft 268kts
24-Jul-20 09:01 33.723993 -118.906159 92 8966ft 271kts
24-Jul-20 09:02 33.733156 -118.816701 86 8984ft 267kts
24-Jul-20 09:03 33.739398 -118.727061 87 8408ft 275kts
24-Jul-20 09:04 33.745348 -118.639142 86 7006ft 253kts
24-Jul-20 09:05 33.750887 -118.555901 85 6989ft 252kts
24-Jul-20 09:06 33.756688 -118.470448 86 6997ft 257kts
24-Jul-20 09:07 33.762136 -118.386077 87 6983ft 249kts
24-Jul-20 09:08 33.767408 -118.304782 87 5524ft 238kts
24-Jul-20 09:09 33.772169 -118.230661 86 4986ft 206kts
24-Jul-20 09:10 33.776428 -118.163705 86 4989ft 196kts
24-Jul-20 09:11 33.780546 -118.098004 84 4981ft 200kts
24-Jul-20 09:12 33.794858 -118.032577 61 4655ft 216kts
24-Jul-20 09:13 33.824254 -117.967674 61 3981ft 218kts
24-Jul-20 09:14 33.852423 -117.905750 61 3967ft 190kts
24-Jul-20 09:15 33.873670 -117.859390 61 3967ft 144kts
24-Jul-20 09:16 33.891428 -117.820021 66 3940ft 117kts
24-Jul-20 09:17 33.883690 -117.786424 111 3978ft 100kts
24-Jul-20 09:18 33.863740 -117.770195 181 3211ft 102kts
24-Jul-20 09:19 33.837551 -117.769806 181 2981ft 91kts
24-Jul-20 09:20 33.814815 -117.780681 208 2974ft 90kts
24-Jul-20 09:21 33.792839 -117.794618 207 2510ft 87kts
24-Jul-20 09:22 33.771517 -117.808124 207 2056ft 86kts
24-Jul-20 09:23 33.750076 -117.821710 206 1593ft 87kts
24-Jul-20 09:24 33.728596 -117.835318 206 1128ft 88kts
24-Jul-20 09:25 33.707143 -117.848850 207 666ft 85kts
24-Jul-20 09:26 33.686041 -117.862254 206 202ft 86kts
24-Jul-20 09:27 33.671675 -117.871362 207 59ft 30kts
24-Jul-20 09:28 33.667526 -117.872931 116 59ft 0kts
24-Jul-20 09:29 33.666203 -117.873517 182 59ft 9kts
24-Jul-20 09:30 33.665904 -117.873070 40 59ft 0kts
24-Jul-20 09:31 33.665904 -117.873070 40 59ft 0kts
24-Jul-20 09:32 33.665904 -117.873070 40 59ft 0kts
24-Jul-20 09:33 33.665904 -117.873070 40 59ft 0kts
24-Jul-20 09:34 33.665904 -117.873070 40 59ft 0kts
24-Jul-20 09:35 33.665904 -117.873070 40 59ft 0kts
24-Jul-20 09:36 33.665904 -117.873070 40 59ft 0kts
24-Jul-20 09:37 33.665904 -117.873070 40 59ft 0kts

Navigation Log

Ident Type
Flight plan parsing failed, navigation log unavailable